createdAt,value
2017-10-02T00:04:16.179Z,0
2017-10-02T00:14:15.105Z,0
2017-10-02T00:24:15.532Z,0
2017-10-02T00:34:06.838Z,0
2017-10-02T00:44:22.830Z,0
2017-10-02T00:54:13.396Z,0
2017-10-02T01:04:17.801Z,0
2017-10-02T01:14:18.739Z,0
2017-10-02T01:24:16.993Z,0
2017-10-02T01:34:17.796Z,0
2017-10-02T01:44:17.279Z,0
2017-10-02T01:54:19.006Z,0
2017-10-02T02:04:19.024Z,0
2017-10-02T02:14:18.245Z,0
2017-10-02T02:24:17.793Z,0
2017-10-02T02:34:18.346Z,0
2017-10-02T02:44:17.222Z,0
2017-10-02T02:54:18.172Z,0
2017-10-02T03:04:19.255Z,0
2017-10-02T03:14:20.075Z,0
2017-10-02T03:24:16.698Z,0
2017-10-02T03:34:21.158Z,0
2017-10-02T03:44:22.083Z,0
2017-10-02T03:54:20.957Z,0
2017-10-02T04:04:26.030Z,0
2017-10-02T04:14:13.675Z,0
2017-10-02T04:24:16.674Z,0
2017-10-02T04:34:16.657Z,0
2017-10-02T04:44:17.252Z,0
2017-10-02T04:54:22.623Z,0
2017-10-02T05:04:19.871Z,0
2017-10-02T05:14:17.867Z,0
2017-10-02T05:24:22.761Z,0
2017-10-02T05:34:15.653Z,0
2017-10-02T05:44:17.407Z,0
2017-10-02T05:54:21.353Z,0
2017-10-02T06:04:19.599Z,0
2017-10-02T06:14:20.693Z,0
2017-10-02T06:24:18.520Z,5
2017-10-02T06:34:08.415Z,5
2017-10-02T06:44:19.326Z,5
2017-10-02T06:54:28.755Z,10
2017-10-02T07:04:19.615Z,15
2017-10-02T07:14:19.360Z,20
2017-10-02T07:24:14.878Z,30
2017-10-02T07:34:17.635Z,35
2017-10-02T07:44:19.528Z,55
2017-10-02T07:54:16.986Z,45
2017-10-02T08:04:19.836Z,50
2017-10-02T08:14:20.930Z,50
2017-10-02T08:24:17.899Z,55
2017-10-02T08:34:19.583Z,110
2017-10-02T08:44:22.235Z,80
2017-10-02T08:54:17.558Z,120
2017-10-02T09:04:18.802Z,135
2017-10-02T09:14:19.439Z,90
2017-10-02T09:24:22.376Z,65
2017-10-02T09:34:23.210Z,110
2017-10-02T09:44:30.122Z,85
2017-10-02T09:54:21.193Z,95
2017-10-02T10:04:24.718Z,140
2017-10-02T10:14:24.508Z,155
2017-10-02T10:24:18.333Z,235
2017-10-02T10:34:19.218Z,190
2017-10-02T10:44:17.077Z,230
2017-10-02T10:54:15.893Z,170
2017-10-02T11:04:15.503Z,140
2017-10-02T11:14:16.969Z,140
2017-10-02T11:24:13.585Z,65
2017-10-02T11:34:20.124Z,40
2017-10-02T11:44:19.004Z,120
2017-10-02T11:54:19.976Z,160
2017-10-02T12:04:13.118Z,195
2017-10-02T12:14:17.749Z,165
2017-10-02T12:24:15.230Z,145
2017-10-02T12:34:19.238Z,160
2017-10-02T12:44:17.589Z,175
2017-10-02T12:54:12.968Z,145
2017-10-02T13:04:17.071Z,150
2017-10-02T13:14:18.413Z,170
2017-10-02T13:24:19.344Z,130
2017-10-02T13:34:18.161Z,160
2017-10-02T13:44:19.743Z,150
2017-10-02T13:54:15.291Z,130
2017-10-02T14:04:16.494Z,95
2017-10-02T14:14:14.354Z,130
2017-10-02T14:24:18.654Z,95
2017-10-02T14:34:16.274Z,85
2017-10-02T14:44:17.820Z,90
2017-10-02T14:54:12.039Z,125
2017-10-02T15:04:20.617Z,85
2017-10-02T15:14:18.749Z,100
2017-10-02T15:24:13.957Z,60
2017-10-02T15:34:17.204Z,75
2017-10-02T15:44:21.454Z,50
2017-10-02T15:54:23.230Z,40
2017-10-02T16:04:13.342Z,45
2017-10-02T16:14:18.964Z,35
2017-10-02T16:24:17.477Z,20
2017-10-02T16:34:16.998Z,15
2017-10-02T16:44:19.466Z,5
2017-10-02T16:54:18.156Z,5
2017-10-02T17:04:13.254Z,0
2017-10-02T17:14:15.287Z,0
2017-10-02T17:24:13.476Z,0
2017-10-02T17:34:20.676Z,0
2017-10-02T17:44:20.089Z,0
2017-10-02T17:54:18.684Z,0
2017-10-02T18:04:20.957Z,0
2017-10-02T18:14:16.008Z,0
2017-10-02T18:24:18.225Z,0
2017-10-02T18:34:21.825Z,0
2017-10-02T18:44:17.896Z,0
2017-10-02T18:54:23.624Z,0
2017-10-02T19:04:14.384Z,0
2017-10-02T19:14:14.839Z,0
2017-10-02T19:24:13.534Z,0
2017-10-02T19:34:12.236Z,0
2017-10-02T19:44:18.563Z,0
2017-10-02T19:54:14.283Z,0
2017-10-02T20:04:14.965Z,0
2017-10-02T20:14:14.736Z,0
2017-10-02T20:24:15.386Z,0
2017-10-02T20:34:17.765Z,0
2017-10-02T20:44:18.078Z,0
2017-10-02T20:54:17.139Z,0
2017-10-02T21:04:17.749Z,0
2017-10-02T21:14:11.184Z,0
2017-10-02T21:24:16.768Z,0
2017-10-02T21:34:19.505Z,0
2017-10-02T21:44:15.004Z,0
2017-10-02T21:54:15.541Z,0
2017-10-02T22:04:17.986Z,0
2017-10-02T22:14:18.518Z,0
2017-10-02T22:24:17.476Z,0
2017-10-02T22:34:17.979Z,0
2017-10-02T22:44:18.790Z,0
2017-10-02T22:54:19.594Z,0
2017-10-02T23:04:17.471Z,0
2017-10-02T23:14:18.852Z,0
2017-10-02T23:24:18.649Z,0
2017-10-02T23:34:19.396Z,0
2017-10-02T23:44:20.462Z,0
2017-10-02T23:54:21.872Z,0
